Time;durP1;ratioP1;P1;durP2;ratioP2;P2;SDS_P1;SDS_P2;PMS_P1;PMS_P2;Temp;Humidity;BMP_temperature;BMP_pressure;BME280_temperature;BME280_humidity;BME280_pressure;Samples;Min_cycle;Max_cycle;Signal;HPM_P1;HPM_P2
2023/12/15 00:00:29;;;;;;;;;;;;;;;17.25;46.32;100749.50;10328945;28;852;-70
2023/12/15 00:05:25;;;;;;;;;;;;;;;17.26;46.29;100760.00;10328729;28;803;-70
2023/12/15 00:10:21;;;;;;;;;;;;;;;17.24;46.20;100761.81;10328588;28;793;-71
2023/12/15 00:15:17;;;;;;;;;;;;;;;17.24;46.37;100767.09;10328168;28;1890;-71
2023/12/15 00:20:13;;;;;;;;;;;;;;;17.26;46.33;100767.91;10328072;28;897;-71
2023/12/15 00:25:09;;;;;;;;;;;;;;;17.25;46.38;100768.81;10328521;28;778;-70
2023/12/15 00:30:05;;;;;;;;;;;;;;;17.21;46.31;100783.00;10328202;28;858;-71
2023/12/15 00:35:01;;;;;;;;;;;;;;;17.22;46.22;100776.81;10327817;28;1898;-71
2023/12/15 00:39:56;;;;;;;;;;;;;;;17.27;46.08;100788.09;10328234;28;772;-71
2023/12/15 00:44:52;;;;;;;;;;;;;;;17.27;46.16;100801.28;10328322;28;825;-70
2023/12/15 00:49:48;;;;;;;;;;;;;;;17.22;46.27;100805.78;10327045;28;885;-71
2023/12/15 00:54:44;;;;;;;;;;;;;;;17.21;46.10;100801.44;10326708;28;1914;-70
2023/12/15 00:59:40;;;;;;;;;;;;;;;17.23;46.26;100807.50;10325837;28;786;-70
2023/12/15 01:04:36;;;;;;;;;;;;;;;17.23;46.13;100802.22;10326454;28;782;-70
2023/12/15 01:09:32;;;;;;;;;;;;;;;17.20;46.15;100807.59;10326903;28;972;-70
2023/12/15 01:14:28;;;;;;;;;;;;;;;17.16;46.33;100819.13;10326093;28;1961;-70
2023/12/15 01:19:23;;;;;;;;;;;;;;;17.18;46.39;100824.31;10325966;28;870;-70
2023/12/15 01:24:19;;;;;;;;;;;;;;;17.21;46.18;100833.03;10325879;28;950;-70
2023/12/15 01:29:15;;;;;;;;;;;;;;;17.20;45.98;100833.06;10326492;28;790;-70
2023/12/15 01:34:11;;;;;;;;;;;;;;;17.16;46.35;100850.72;10325089;28;1898;-70
2023/12/15 01:39:07;;;;;;;;;;;;;;;17.16;46.28;100866.53;10326733;28;826;-70
2023/12/15 01:44:03;;;;;;;;;;;;;;;17.19;46.04;100870.88;10326046;28;850;-70
2023/12/15 01:48:59;;;;;;;;;;;;;;;17.20;46.22;100870.81;10324731;28;940;-70
2023/12/15 01:53:54;;;;;;;;;;;;;;;17.18;46.10;100872.59;10325752;28;1977;-70
2023/12/15 01:58:50;;;;;;;;;;;;;;;17.15;46.32;100858.66;10326347;28;850;-70
2023/12/15 02:03:46;;;;;;;;;;;;;;;17.14;46.16;100862.19;10324467;28;865;-71
2023/12/15 02:08:42;;;;;;;;;;;;;;;17.18;46.24;100863.84;10325063;28;878;-71
2023/12/15 02:13:38;;;;;;;;;;;;;;;17.16;46.22;100866.53;10329880;28;1965;-71
2023/12/15 02:18:34;;;;;;;;;;;;;;;17.11;46.11;100871.03;10333625;28;925;-71
2023/12/15 02:23:30;;;;;;;;;;;;;;;17.11;46.10;100875.41;10332703;28;771;-70
2023/12/15 02:28:25;;;;;;;;;;;;;;;17.13;46.10;100882.38;10332472;28;771;-71
2023/12/15 02:33:21;;;;;;;;;;;;;;;17.13;46.26;100884.16;10333427;28;1959;-70
2023/12/15 02:38:18;;;;;;;;;;;;;;;17.11;46.22;100891.22;10331936;28;1270;-70
2023/12/15 02:43:14;;;;;;;;;;;;;;;17.09;46.35;100897.41;10331830;28;830;-70
2023/12/15 02:48:10;;;;;;;;;;;;;;;17.12;46.22;100909.66;10331934;28;897;-70
2023/12/15 02:53:06;;;;;;;;;;;;;;;17.11;46.28;100907.03;10314736;28;1918;-70
2023/12/15 02:58:01;;;;;;;;;;;;;;;17.08;46.15;100910.59;10331392;28;831;-71
2023/12/15 03:02:57;;;;;;;;;;;;;;;17.06;46.11;100902.75;10331184;28;901;-70
2023/12/15 03:07:53;;;;;;;;;;;;;;;17.10;46.24;100906.16;10331004;28;957;-70
2023/12/15 03:12:49;;;;;;;;;;;;;;;17.07;46.22;100893.06;10331363;28;1947;-71
2023/12/15 03:17:45;;;;;;;;;;;;;;;17.05;46.22;100910.66;10330049;28;1047;-70
2023/12/15 03:22:41;;;;;;;;;;;;;;;17.07;46.24;100908.88;10329545;28;821;-70
2023/12/15 03:27:37;;;;;;;;;;;;;;;17.08;46.30;100914.13;10330878;28;775;-71
2023/12/15 03:32:33;;;;;;;;;;;;;;;17.07;46.22;100922.03;10329675;28;1914;-71
2023/12/15 03:37:29;;;;;;;;;;;;;;;17.05;46.19;100926.47;10330921;28;1239;-71
2023/12/15 03:42:24;;;;;;;;;;;;;;;17.08;46.11;100927.28;10329720;28;951;-71
2023/12/15 03:47:20;;;;;;;;;;;;;;;17.08;46.15;100939.56;10329539;28;919;-70
2023/12/15 03:52:16;;;;;;;;;;;;;;;17.04;46.11;100938.78;10328749;28;996;-70
2023/12/15 03:57:12;;;;;;;;;;;;;;;17.03;46.15;100947.59;10329090;28;1971;-71
2023/12/15 04:02:12;;;;;;;;;;;;;;;17.08;46.10;100947.47;10328939;28;889;-70
2023/12/15 04:07:07;;;;;;;;;;;;;;;17.08;46.16;100948.38;10328880;28;943;-70
2023/12/15 04:12:03;;;;;;;;;;;;;;;17.05;46.26;100955.44;10329263;28;858;-71
2023/12/15 04:17:00;;;;;;;;;;;;;;;17.00;46.16;100955.56;10328268;28;1890;-70
2023/12/15 04:21:56;;;;;;;;;;;;;;;17.02;46.10;100956.38;10328057;28;876;-71
2023/12/15 04:26:52;;;;;;;;;;;;;;;17.04;46.13;100964.25;10328548;28;834;-70
2023/12/15 04:31:48;;;;;;;;;;;;;;;17.04;46.24;100972.16;10327712;28;819;-70
2023/12/15 04:36:43;;;;;;;;;;;;;;;17.00;46.35;100979.28;10327117;28;1955;-70
2023/12/15 04:41:39;;;;;;;;;;;;;;;17.01;46.21;100985.41;10328045;28;795;-71
2023/12/15 04:46:36;;;;;;;;;;;;;;;17.06;46.14;100980.91;10327935;28;821;-71
2023/12/15 04:51:32;;;;;;;;;;;;;;;17.07;46.08;100994.03;10327818;28;898;-70
2023/12/15 04:56:28;;;;;;;;;;;;;;;17.12;45.86;101003.63;10326718;28;1969;-70
2023/12/15 05:01:25;;;;;;;;;;;;;;;17.14;46.01;100991.28;10326902;28;832;-70
2023/12/15 05:06:21;;;;;;;;;;;;;;;17.12;45.95;100987.81;10326390;28;889;-70
2023/12/15 05:11:17;;;;;;;;;;;;;;;17.14;45.92;100994.78;10326304;28;1715;-70
2023/12/15 05:16:13;;;;;;;;;;;;;;;17.12;46.06;101001.84;10327085;28;1910;-71
2023/12/15 05:21:09;;;;;;;;;;;;;;;17.11;46.00;101012.41;10326006;28;787;-70
2023/12/15 05:26:05;;;;;;;;;;;;;;;17.16;45.82;101013.19;10326572;28;861;-70
2023/12/15 05:31:00;;;;;;;;;;;;;;;17.13;45.88;101013.25;10325846;28;912;-71
2023/12/15 05:35:56;;;;;;;;;;;;;;;17.14;46.01;101023.78;10325899;28;1894;-71
2023/12/15 05:40:52;;;;;;;;;;;;;;;17.17;45.79;101021.06;10325007;28;956;-71
2023/12/15 05:45:48;;;;;;;;;;;;;;;17.15;46.01;101027.25;10325495;28;808;-71
2023/12/15 05:50:44;;;;;;;;;;;;;;;17.15;45.92;101036.03;10325979;28;859;-71
2023/12/15 05:55:40;;;;;;;;;;;;;;;17.18;45.84;101029.84;10325379;28;1914;-71
2023/12/15 06:00:36;;;;;;;;;;;;;;;17.16;45.87;101036.88;10325845;28;1008;-71
2023/12/15 06:05:35;;;;;;;;;;;;;;;17.16;45.92;101042.16;10325611;28;876;-71
2023/12/15 06:10:31;;;;;;;;;;;;;;;17.17;45.90;101046.56;10325195;28;834;-71
2023/12/15 06:15:27;;;;;;;;;;;;;;;17.17;45.92;101067.63;10325049;28;1902;-71
2023/12/15 06:20:22;;;;;;;;;;;;;;;17.16;45.85;101064.13;10325094;28;826;-71
2023/12/15 06:25:18;;;;;;;;;;;;;;;17.19;45.69;101074.59;10324052;28;909;-71
2023/12/15 06:30:14;;;;;;;;;;;;;;;17.17;45.69;101072.91;10325363;28;983;-71
2023/12/15 06:35:10;;;;;;;;;;;;;;;17.15;46.05;101082.59;10325201;28;1905;-71
2023/12/15 06:40:06;;;;;;;;;;;;;;;17.18;45.75;101085.16;10325021;28;791;-72
2023/12/15 06:45:07;;;;;;;;;;;;;;;17.18;45.75;101085.16;10324330;28;886;-71
2023/12/15 06:50:03;;;;;;;;;;;;;;;17.16;45.82;101100.13;10323592;28;878;-72
2023/12/15 06:54:59;;;;;;;;;;;;;;;17.17;45.76;101108.00;10323473;28;1922;-71
2023/12/15 06:59:56;;;;;;;;;;;;;;;17.16;45.89;101108.91;10326810;28;1242;-71
2023/12/15 07:04:52;;;;;;;;;;;;;;;17.11;45.97;101118.69;10331258;28;890;-71
2023/12/15 07:09:47;;;;;;;;;;;;;;;17.07;46.05;101124.88;10331607;28;783;-70
2023/12/15 07:14:43;;;;;;;;;;;;;;;17.02;46.14;101130.22;10331332;28;1910;-71
2023/12/15 07:19:39;;;;;;;;;;;;;;;16.97;46.29;101133.84;10330670;28;775;-72
2023/12/15 07:24:35;;;;;;;;;;;;;;;16.93;46.21;101137.44;10331106;28;858;-71
2023/12/15 07:29:31;;;;;;;;;;;;;;;16.85;46.22;101141.06;10330346;28;976;-68
2023/12/15 07:34:27;;;;;;;;;;;;;;;16.86;46.28;101140.16;10311411;28;1959;-71
2023/12/15 07:39:23;;;;;;;;;;;;;;;16.89;46.27;101154.19;10329932;28;871;-70
2023/12/15 07:44:20;;;;;;;;;;;;;;;16.88;46.43;101153.31;10329898;28;1214;-71
2023/12/15 07:49:16;;;;;;;;;;;;;;;16.97;46.29;101154.91;10328872;28;1724;-71
2023/12/15 07:54:12;;;;;;;;;;;;;;;17.00;46.28;101175.94;10329350;28;1918;-73
2023/12/15 07:59:08;;;;;;;;;;;;;;;16.96;46.29;101188.28;10329153;28;857;-71
2023/12/15 08:04:05;;;;;;;;;;;;;;;16.95;46.12;101185.66;10328969;28;919;-71
2023/12/15 08:09:01;;;;;;;;;;;;;;;16.95;46.25;101175.13;10328247;28;907;-71
2023/12/15 08:13:57;;;;;;;;;;;;;;;16.98;46.17;101189.16;10327866;28;1898;-70
2023/12/15 08:18:53;;;;;;;;;;;;;;;17.00;46.02;101202.28;10328874;28;851;-71
2023/12/15 08:23:49;;;;;;;;;;;;;;;16.99;46.01;101222.47;10328177;28;881;-71
2023/12/15 08:28:45;;;;;;;;;;;;;;;17.03;46.09;101220.69;10328550;28;1181;-71
2023/12/15 08:33:40;;;;;;;;;;;;;;;17.01;46.09;101231.25;10327665;28;2002;-71
2023/12/15 08:38:36;;;;;;;;;;;;;;;17.01;46.16;101231.25;10326847;28;1301;-71
2023/12/15 08:43:32;;;;;;;;;;;;;;;17.03;45.92;101228.59;10327877;28;878;-72
2023/12/15 08:48:28;;;;;;;;;;;;;;;17.01;46.07;101240.91;10327424;28;875;-71
2023/12/15 08:53:24;;;;;;;;;;;;;;;17.04;45.98;101254.03;10327493;28;1909;-71
2023/12/15 08:58:21;;;;;;;;;;;;;;;17.05;45.96;101279.47;10326819;28;818;-71
2023/12/15 09:03:17;;;;;;;;;;;;;;;17.00;46.24;101282.19;10326553;28;898;-72
2023/12/15 09:08:13;;;;;;;;;;;;;;;17.03;46.09;101291.81;10326368;28;887;-79
2023/12/15 09:13:09;;;;;;;;;;;;;;;17.04;45.91;101301.44;10325607;28;1894;-74
2023/12/15 09:18:06;;;;;;;;;;;;;;;17.02;46.07;101303.22;10326132;28;826;-74
2023/12/15 09:23:02;;;;;;;;;;;;;;;17.03;45.98;101324.28;10325416;28;954;-74
2023/12/15 09:27:57;;;;;;;;;;;;;;;17.06;46.02;101333.91;10326476;28;938;-74
2023/12/15 09:32:53;;;;;;;;;;;;;;;17.01;46.12;101336.59;10325629;28;1894;-75
2023/12/15 09:37:49;;;;;;;;;;;;;;;17.11;45.65;101350.53;10326021;28;1153;-74
2023/12/15 09:42:45;;;;;;;;;;;;;;;17.07;46.11;101356.72;10326739;28;1028;-74
2023/12/15 09:47:41;;;;;;;;;;;;;;;17.04;46.12;101367.31;10326624;28;1195;-74
2023/12/15 09:52:37;;;;;;;;;;;;;;;17.07;45.96;101377.78;10325256;28;1914;-74
2023/12/15 09:57:33;;;;;;;;;;;;;;;17.06;45.93;101391.88;10325212;28;822;-74
2023/12/15 10:02:28;;;;;;;;;;;;;;;17.05;46.05;101405.91;10325896;28;842;-75
2023/12/15 10:07:24;;;;;;;;;;;;;;;17.07;45.89;101402.38;10324565;28;1020;-75
2023/12/15 10:12:20;;;;;;;;;;;;;;;17.09;45.88;101405.00;10324891;28;850;-74
2023/12/15 10:17:16;;;;;;;;;;;;;;;17.06;46.25;101407.69;10324852;28;1890;-74
2023/12/15 10:22:12;;;;;;;;;;;;;;;17.08;45.97;101411.13;10325746;28;891;-76
2023/12/15 10:27:08;;;;;;;;;;;;;;;17.08;46.04;101412.03;10324062;28;900;-74
2023/12/15 10:32:04;;;;;;;;;;;;;;;17.06;45.96;101413.81;10325877;28;1554;-74
2023/12/15 10:37:00;;;;;;;;;;;;;;;17.07;45.96;101423.44;10333088;28;1934;-76
2023/12/15 10:41:56;;;;;;;;;;;;;;;17.05;46.20;101432.25;10332145;28;818;-74
2023/12/15 10:46:51;;;;;;;;;;;;;;;17.04;45.96;101406.81;10331930;28;864;-74
2023/12/15 10:51:47;;;;;;;;;;;;;;;17.06;46.09;101398.00;10331683;28;879;-75
2023/12/15 10:56:45;;;;;;;;;;;;;;;17.05;46.08;101403.28;10332106;28;1973;-74
2023/12/15 11:01:41;;;;;;;;;;;;;;;17.06;46.05;101418.22;10331392;28;878;-74
2023/12/15 11:06:36;;;;;;;;;;;;;;;17.07;46.15;101412.03;10331245;28;767;-74
2023/12/15 11:11:32;;;;;;;;;;;;;;;17.06;46.00;101429.63;10331054;28;933;-77
2023/12/15 11:16:29;;;;;;;;;;;;;;;17.06;46.03;101423.47;10330791;28;1894;-75
2023/12/15 11:21:25;;;;;;;;;;;;;;;17.06;46.04;101426.97;10331219;28;857;-74
2023/12/15 11:26:22;;;;;;;;;;;;;;;17.07;45.89;101427.84;10330614;28;806;-75
2023/12/15 11:31:17;;;;;;;;;;;;;;;17.04;46.04;101441.06;10330314;28;914;-75
2023/12/15 11:36:15;;;;;;;;;;;;;;;17.09;45.79;101450.66;10330150;28;1898;-75
2023/12/15 11:41:11;;;;;;;;;;;;;;;17.09;45.84;101449.78;10329868;28;990;-74
2023/12/15 11:46:06;;;;;;;;;;;;;;;17.05;46.10;101470.00;10328901;28;802;-74
2023/12/15 11:51:02;;;;;;;;;;;;;;;17.07;46.02;101462.09;10330459;28;899;-74
2023/12/15 11:56:01;;;;;;;;;;;;;;;17.06;46.11;101455.09;10330316;28;1905;-74
2023/12/15 12:00:57;;;;;;;;;;;;;;;17.02;46.16;101454.25;10329177;28;894;-74
2023/12/15 12:05:56;;;;;;;;;;;;;;;17.06;46.03;101457.72;10328375;28;845;-74
2023/12/15 12:10:57;;;;;;;;;;;;;;;17.03;46.14;101466.53;10328845;28;877;-74
2023/12/15 12:15:53;;;;;;;;;;;;;;;17.04;46.05;101478.81;10328437;28;1937;-73
2023/12/15 12:20:49;;;;;;;;;;;;;;;17.05;46.11;101483.19;10328914;28;902;-74
2023/12/15 12:25:45;;;;;;;;;;;;;;;17.06;45.93;101486.72;10328081;28;794;-74
2023/12/15 12:30:41;;;;;;;;;;;;;;;17.05;45.91;101496.34;10329312;28;897;-74
2023/12/15 12:35:38;;;;;;;;;;;;;;;17.07;46.11;101494.56;10327597;28;1939;-75
2023/12/15 12:40:33;;;;;;;;;;;;;;;17.05;45.92;101491.09;10328174;28;869;-74
2023/12/15 12:45:29;;;;;;;;;;;;;;;17.06;45.91;101495.47;10327296;28;870;-74
2023/12/15 12:50:25;;;;;;;;;;;;;;;17.08;45.97;101493.72;10328105;28;822;-74
2023/12/15 12:55:23;;;;;;;;;;;;;;;17.07;46.09;101478.78;10327111;28;1914;-73
2023/12/15 13:00:19;;;;;;;;;;;;;;;17.05;45.89;101484.94;10326708;28;786;-74
2023/12/15 13:05:15;;;;;;;;;;;;;;;17.07;46.06;101485.81;10327307;28;794;-73
2023/12/15 13:10:14;;;;;;;;;;;;;;;17.06;45.93;101494.63;10326981;28;888;-73
2023/12/15 13:15:10;;;;;;;;;;;;;;;17.04;46.00;101491.97;10326146;28;1902;-74
2023/12/15 13:20:09;;;;;;;;;;;;;;;17.08;45.84;101484.91;10326077;28;906;-73
2023/12/15 13:25:10;;;;;;;;;;;;;;;17.04;45.91;101472.69;10325891;28;902;-74
2023/12/15 13:30:09;;;;;;;;;;;;;;;17.03;45.97;101466.53;10326407;28;843;-73
2023/12/15 13:35:06;;;;;;;;;;;;;;;17.06;45.83;101468.28;10325441;28;1951;-73
2023/12/15 13:40:03;;;;;;;;;;;;;;;17.04;45.91;101452.47;10325301;28;1184;-74
2023/12/15 13:44:59;;;;;;;;;;;;;;;17.05;45.86;101437.53;10325490;28;872;-73
2023/12/15 13:49:56;;;;;;;;;;;;;;;17.09;45.88;101468.22;10326024;28;815;-72
2023/12/15 13:54:52;;;;;;;;;;;;;;;17.05;45.93;101471.78;10325188;28;1910;-74
2023/12/15 13:59:47;;;;;;;;;;;;;;;17.03;45.87;101463.91;10325270;28;904;-74
2023/12/15 14:04:43;;;;;;;;;;;;;;;17.08;45.90;101479.63;10325199;28;763;-76
2023/12/15 14:09:39;;;;;;;;;;;;;;;17.06;45.78;101490.22;10330125;28;868;-74
2023/12/15 14:14:35;;;;;;;;;;;;;;;17.04;46.05;101496.38;10333495;28;1914;-74
2023/12/15 14:19:31;;;;;;;;;;;;;;;17.07;46.00;101499.84;10333407;28;957;-74
2023/12/15 14:24:27;;;;;;;;;;;;;;;17.04;45.91;101494.63;10332603;28;773;-74
2023/12/15 14:29:23;;;;;;;;;;;;;;;17.05;45.83;101512.16;10333019;28;829;-75
2023/12/15 14:34:20;;;;;;;;;;;;;;;17.06;45.88;101510.41;10332517;28;2012;-75
2023/12/15 14:39:15;;;;;;;;;;;;;;;17.02;45.95;101521.88;10332614;28;911;-75
2023/12/15 14:44:11;;;;;;;;;;;;;;;16.98;46.12;101528.09;10331815;28;778;-74
2023/12/15 14:49:07;;;;;;;;;;;;;;;16.94;46.03;101536.91;10332208;28;928;-75
2023/12/15 14:54:03;;;;;;;;;;;;;;;16.89;46.29;101552.75;10331910;28;1902;-75
2023/12/15 14:58:59;;;;;;;;;;;;;;;16.88;46.22;101568.59;10330655;28;818;-75
2023/12/15 15:03:55;;;;;;;;;;;;;;;16.87;46.32;101570.31;10326826;28;1583;-83
2023/12/15 15:08:51;;;;;;;;;;;;;;;16.86;46.25;101595.78;10324898;28;818;-83
2023/12/15 15:13:47;;;;;;;;;;;;;;;16.88;46.23;101605.44;10330518;28;1894;-74
2023/12/15 15:18:42;;;;;;;;;;;;;;;16.85;46.36;101604.59;10322145;28;1872;-75
2023/12/15 15:23:38;;;;;;;;;;;;;;;16.87;46.15;101599.28;10311566;28;1008;-74
2023/12/15 15:28:34;;;;;;;;;;;;;;;16.90;46.30;101603.66;10303192;28;952;-75
2023/12/15 15:33:30;;;;;;;;;;;;;;;16.91;46.17;101602.78;10289641;28;1961;-71
2023/12/15 15:38:26;;;;;;;;;;;;;;;17.19;45.77;101627.09;10291555;28;1269;-74
2023/12/15 15:43:22;;;;;;;;;;;;;;;17.02;46.47;101638.66;10288897;28;865;-74
2023/12/15 15:48:19;;;;;;;;;;;;;;;17.01;46.30;101629.00;10288029;28;854;-75
2023/12/15 15:53:15;;;;;;;;;;;;;;;16.99;46.31;101624.66;10288378;28;1902;-74
2023/12/15 15:58:11;;;;;;;;;;;;;;;16.98;46.11;101615.00;10288341;28;904;-75
2023/12/15 16:03:06;;;;;;;;;;;;;;;17.00;46.24;101624.66;10287596;28;849;-73
2023/12/15 16:08:02;;;;;;;;;;;;;;;17.01;46.01;101636.06;10287944;28;934;-73
2023/12/15 16:12:58;;;;;;;;;;;;;;;16.98;46.18;101628.19;10287657;28;1903;-74
2023/12/15 16:17:54;;;;;;;;;;;;;;;17.00;46.14;101642.19;10287513;28;895;-74
2023/12/15 16:22:50;;;;;;;;;;;;;;;17.01;46.14;101638.69;10287318;28;935;-74
2023/12/15 16:27:46;;;;;;;;;;;;;;;17.01;46.13;101642.19;10287134;28;826;-73
2023/12/15 16:32:42;;;;;;;;;;;;;;;16.99;46.30;101654.50;10287480;28;886;-74
2023/12/15 16:37:38;;;;;;;;;;;;;;;17.03;46.13;101673.81;10286321;28;1956;-74
2023/12/15 16:42:34;;;;;;;;;;;;;;;16.99;46.00;101657.13;10286005;28;1005;-74
2023/12/15 16:47:30;;;;;;;;;;;;;;;17.01;46.09;101652.72;10286457;28;886;-78
2023/12/15 16:52:26;;;;;;;;;;;;;;;17.04;46.04;101652.69;10286360;28;822;-73
2023/12/15 16:57:22;;;;;;;;;;;;;;;17.04;46.12;101641.28;10286969;28;1910;-73
2023/12/15 17:02:18;;;;;;;;;;;;;;;17.04;46.13;101657.09;10286829;28;918;-73
2023/12/15 17:07:13;;;;;;;;;;;;;;;17.03;46.23;101655.34;10285877;28;783;-73
2023/12/15 17:12:09;;;;;;;;;;;;;;;17.01;45.99;101654.50;10286434;28;859;-73
2023/12/15 17:17:05;;;;;;;;;;;;;;;17.04;45.92;101651.81;10284847;28;1977;-74
2023/12/15 17:22:01;;;;;;;;;;;;;;;17.05;45.92;101672.00;10285995;28;818;-73
2023/12/15 17:26:57;;;;;;;;;;;;;;;17.04;46.10;101676.41;10285169;28;832;-73
2023/12/15 17:31:53;;;;;;;;;;;;;;;17.06;45.92;101681.66;10285749;28;923;-74
2023/12/15 17:36:53;;;;;;;;;;;;;;;17.08;45.90;101690.41;10285815;28;1969;-74
2023/12/15 17:41:49;;;;;;;;;;;;;;;17.05;45.80;101693.06;10284181;28;851;-74
2023/12/15 17:46:45;;;;;;;;;;;;;;;17.07;45.92;101693.94;10284807;28;884;-73
2023/12/15 17:51:41;;;;;;;;;;;;;;;17.08;45.74;101704.47;10284635;28;877;-74
2023/12/15 17:56:37;;;;;;;;;;;;;;;17.05;46.05;101711.53;10283809;28;1914;-73
2023/12/15 18:01:33;;;;;;;;;;;;;;;17.07;45.95;101715.88;10284483;28;857;-73
2023/12/15 18:06:29;;;;;;;;;;;;;;;17.09;45.83;101719.38;10284346;28;779;-73
2023/12/15 18:11:26;;;;;;;;;;;;;;;17.06;45.85;101723.81;10284742;28;819;-73
2023/12/15 18:16:22;;;;;;;;;;;;;;;17.08;45.81;101728.19;10283890;28;1897;-74
2023/12/15 18:21:20;;;;;;;;;;;;;;;17.09;45.74;101718.53;10284939;28;857;-73
2023/12/15 18:26:16;;;;;;;;;;;;;;;17.09;45.90;101715.88;10285015;28;814;-73
2023/12/15 18:31:12;;;;;;;;;;;;;;;17.11;45.89;101711.50;10283805;28;869;-74
2023/12/15 18:36:08;;;;;;;;;;;;;;;17.11;45.71;101727.28;10284620;28;1955;-73
2023/12/15 18:41:04;;;;;;;;;;;;;;;17.09;45.69;101714.13;10283959;28;875;-73
2023/12/15 18:46:00;;;;;;;;;;;;;;;17.12;45.78;101709.72;10284155;28;1084;-73
2023/12/15 18:50:56;;;;;;;;;;;;;;;17.12;45.67;101717.63;10283775;28;775;-73
2023/12/15 18:55:52;;;;;;;;;;;;;;;17.10;45.84;101717.63;10288428;28;1967;-73
2023/12/15 19:00:48;;;;;;;;;;;;;;;17.14;45.64;101731.66;10291449;28;865;-73
2023/12/15 19:05:44;;;;;;;;;;;;;;;17.11;45.60;101756.28;10291249;28;802;-74
2023/12/15 19:10:40;;;;;;;;;;;;;;;17.12;45.56;101726.41;10290470;28;802;-74
2023/12/15 19:15:36;;;;;;;;;;;;;;;17.14;45.52;101710.59;10290035;28;1953;-74
2023/12/15 19:20:31;;;;;;;;;;;;;;;17.13;45.61;101729.91;10290065;28;856;-73
2023/12/15 19:25:27;;;;;;;;;;;;;;;17.14;45.51;101750.09;10289830;28;899;-73
2023/12/15 19:30:23;;;;;;;;;;;;;;;17.15;45.65;101743.94;10289724;28;897;-73
2023/12/15 19:35:19;;;;;;;;;;;;;;;17.15;45.70;101762.38;10288574;28;1894;-73
2023/12/15 19:40:15;;;;;;;;;;;;;;;17.13;45.58;101759.75;10289269;28;771;-73
2023/12/15 19:45:11;;;;;;;;;;;;;;;17.15;45.60;101759.75;10289800;28;854;-73
2023/12/15 19:50:07;;;;;;;;;;;;;;;17.16;45.61;101778.19;10289020;28;790;-73
2023/12/15 19:55:03;;;;;;;;;;;;;;;17.15;45.41;101783.47;10289653;28;1973;-73
2023/12/15 19:59:59;;;;;;;;;;;;;;;17.16;45.61;101782.56;10288602;28;869;-74
2023/12/15 20:04:57;;;;;;;;;;;;;;;17.15;45.52;101765.88;10287663;28;866;-73
2023/12/15 20:09:53;;;;;;;;;;;;;;;17.16;45.49;101785.19;10288173;28;884;-73
2023/12/15 20:14:49;;;;;;;;;;;;;;;17.20;45.47;101781.66;10287787;28;1963;-73
2023/12/15 20:19:45;;;;;;;;;;;;;;;17.18;45.50;101797.47;10287604;28;1004;-73
2023/12/15 20:24:41;;;;;;;;;;;;;;;17.16;45.57;101795.75;10288252;28;829;-73
2023/12/15 20:29:37;;;;;;;;;;;;;;;17.19;45.43;101804.53;10288143;28;786;-73
2023/12/15 20:34:36;;;;;;;;;;;;;;;17.21;45.38;101831.75;10287075;28;1960;-73
2023/12/15 20:39:33;;;;;;;;;;;;;;;17.16;45.62;101836.16;10287191;28;909;-73
2023/12/15 20:44:29;;;;;;;;;;;;;;;17.14;45.57;101830.03;10286825;28;854;-73
2023/12/15 20:49:25;;;;;;;;;;;;;;;17.11;45.75;101840.59;10287278;28;819;-73
2023/12/15 20:54:22;;;;;;;;;;;;;;;17.12;45.46;101841.47;10286436;28;1975;-73
2023/12/15 20:59:18;;;;;;;;;;;;;;;17.12;45.59;101842.34;10286701;28;866;-73
2023/12/15 21:04:15;;;;;;;;;;;;;;;17.10;45.63;101841.47;10286745;28;842;-73
2023/12/15 21:09:13;;;;;;;;;;;;;;;17.07;45.66;101831.81;10285968;28;773;-73
2023/12/15 21:14:09;;;;;;;;;;;;;;;17.09;45.52;101823.91;10285635;28;1902;-73
2023/12/15 21:19:04;;;;;;;;;;;;;;;17.09;45.51;101816.88;10285325;28;889;-73
2023/12/15 21:24:00;;;;;;;;;;;;;;;17.07;45.68;101817.78;10285447;28;839;-73
2023/12/15 21:28:56;;;;;;;;;;;;;;;17.05;45.64;101806.38;10286122;28;874;-73
2023/12/15 21:33:53;;;;;;;;;;;;;;;17.10;45.39;101809.84;10285918;28;1905;-73
2023/12/15 21:38:49;;;;;;;;;;;;;;;17.12;45.36;101802.81;10285992;28;1164;-73
2023/12/15 21:43:45;;;;;;;;;;;;;;;17.13;45.29;101801.03;10284915;28;966;-73
2023/12/15 21:48:41;;;;;;;;;;;;;;;17.11;45.33;101808.06;10284821;28;822;-73
2023/12/15 21:53:37;;;;;;;;;;;;;;;17.08;45.33;101819.50;10284495;28;1909;-72
2023/12/15 21:58:33;;;;;;;;;;;;;;;17.05;45.58;101824.81;10283925;28;993;-72
2023/12/15 22:03:29;;;;;;;;;;;;;;;17.03;45.42;101831.88;10285042;28;822;-73
2023/12/15 22:08:25;;;;;;;;;;;;;;;17.04;45.55;101828.34;10284985;28;893;-73
2023/12/15 22:13:20;;;;;;;;;;;;;;;17.04;45.59;101826.56;10284337;28;1957;-73
2023/12/15 22:18:19;;;;;;;;;;;;;;;17.03;45.37;101832.75;10284828;28;871;-73
2023/12/15 22:23:15;;;;;;;;;;;;;;;17.01;45.65;101841.53;10284674;28;782;-73
2023/12/15 22:28:11;;;;;;;;;;;;;;;16.99;45.46;101836.28;10285551;28;852;-73
2023/12/15 22:33:07;;;;;;;;;;;;;;;16.99;45.41;101825.72;10292480;28;1902;-73
2023/12/15 22:38:04;;;;;;;;;;;;;;;17.02;45.46;101824.84;10291076;28;1220;-72
2023/12/15 22:43:01;;;;;;;;;;;;;;;17.02;45.36;101830.09;10292380;28;878;-73
2023/12/15 22:47:57;;;;;;;;;;;;;;;16.99;45.51;101836.28;10291364;28;1077;-73
2023/12/15 22:52:53;;;;;;;;;;;;;;;16.97;45.59;101852.97;10291224;28;818;-73
2023/12/15 22:57:51;;;;;;;;;;;;;;;17.01;45.43;101859.97;10290965;28;1981;-73
2023/12/15 23:02:47;;;;;;;;;;;;;;;16.99;45.52;101859.97;10290885;28;775;-73
2023/12/15 23:07:43;;;;;;;;;;;;;;;16.96;45.64;101859.13;10290684;28;822;-73
2023/12/15 23:12:39;;;;;;;;;;;;;;;16.96;45.64;101848.59;10290360;28;920;-73
2023/12/15 23:17:35;;;;;;;;;;;;;;;17.00;45.46;101845.03;10290358;28;1957;-74
2023/12/15 23:22:31;;;;;;;;;;;;;;;16.99;45.50;101849.44;10290171;28;873;-73
2023/12/15 23:27:27;;;;;;;;;;;;;;;16.97;45.28;101859.09;10289958;28;716;-73
2023/12/15 23:32:22;;;;;;;;;;;;;;;16.97;45.34;101876.69;10290459;28;940;-73
2023/12/15 23:37:19;;;;;;;;;;;;;;;16.99;45.47;101880.19;10289934;28;1894;-74
2023/12/15 23:42:15;;;;;;;;;;;;;;;16.99;45.51;101874.91;10288234;28;917;-73
2023/12/15 23:47:11;;;;;;;;;;;;;;;16.96;45.51;101877.56;10289172;28;870;-73
2023/12/15 23:52:07;;;;;;;;;;;;;;;16.95;45.30;101875.81;10288852;28;1174;-73
2023/12/15 23:57:03;;;;;;;;;;;;;;;16.97;45.47;101882.81;10289288;28;1977;-73
